sensor_id;sensor_type;location;lat;lon;timestamp;pressure;altitude;pressure_sealevel;temperature;humidity
6134;BME280;3098;42.678;23.364;2022-08-02T00:01:07;94744.31;;;19.52;68.28
6134;BME280;3098;42.678;23.364;2022-08-02T00:03:34;94755.09;;;19.56;68.35
6134;BME280;3098;42.678;23.364;2022-08-02T00:06:01;94755.53;;;19.61;68.71
6134;BME280;3098;42.678;23.364;2022-08-02T00:08:28;94753.31;;;19.67;68.85
6134;BME280;3098;42.678;23.364;2022-08-02T00:10:55;94745.44;;;19.51;69.42
6134;BME280;3098;42.678;23.364;2022-08-02T00:13:22;94758.16;;;19.54;70.53
6134;BME280;3098;42.678;23.364;2022-08-02T00:15:54;94763.03;;;19.45;72.51
6134;BME280;3098;42.678;23.364;2022-08-02T00:18:21;94760.38;;;19.19;74.99
6134;BME280;3098;42.678;23.364;2022-08-02T00:20:48;94760.84;;;18.94;77.52
6134;BME280;3098;42.678;23.364;2022-08-02T00:23:15;94752.38;;;18.66;80.36
6134;BME280;3098;42.678;23.364;2022-08-02T00:25:42;94753.75;;;18.34;82.72
6134;BME280;3098;42.678;23.364;2022-08-02T00:28:09;94755.44;;;18.19;83.81
6134;BME280;3098;42.678;23.364;2022-08-02T00:30:36;94751.41;;;18.06;84.79
6134;BME280;3098;42.678;23.364;2022-08-02T00:33:05;94756.28;;;18.01;85.08
6134;BME280;3098;42.678;23.364;2022-08-02T00:35:33;94619.50;;;16.94;86.01
6134;BME280;3098;42.678;23.364;2022-08-02T00:38:00;94757.88;;;17.83;86.33
6134;BME280;3098;42.678;23.364;2022-08-02T00:40:28;94748.19;;;17.55;87.23
6134;BME280;3098;42.678;23.364;2022-08-02T00:43:03;94747.53;;;17.43;88.00
6134;BME280;3098;42.678;23.364;2022-08-02T00:45:31;94754.88;;;17.46;88.56
6134;BME280;3098;42.678;23.364;2022-08-02T00:47:59;94754.53;;;17.47;88.54
6134;BME280;3098;42.678;23.364;2022-08-02T00:50:27;94746.00;;;17.22;89.38
6134;BME280;3098;42.678;23.364;2022-08-02T00:52:55;94750.78;;;17.52;88.24
6134;BME280;3098;42.678;23.364;2022-08-02T00:55:22;94724.34;;;17.12;88.52
6134;BME280;3098;42.678;23.364;2022-08-02T00:57:49;94758.34;;;17.27;88.81
6134;BME280;3098;42.678;23.364;2022-08-02T01:00:17;94751.22;;;17.15;89.30
6134;BME280;3098;42.678;23.364;2022-08-02T01:02:44;94752.69;;;17.13;89.55
6134;BME280;3098;42.678;23.364;2022-08-02T01:05:12;94754.19;;;17.10;90.17
6134;BME280;3098;42.678;23.364;2022-08-02T01:07:40;94752.13;;;17.04;90.99
6134;BME280;3098;42.678;23.364;2022-08-02T01:10:08;94750.84;;;16.98;91.41
6134;BME280;3098;42.678;23.364;2022-08-02T01:12:35;94768.69;;;16.90;91.56
6134;BME280;3098;42.678;23.364;2022-08-02T01:15:06;94729.00;;;16.61;92.08
6134;BME280;3098;42.678;23.364;2022-08-02T01:17:43;94751.72;;;16.67;92.61
6134;BME280;3098;42.678;23.364;2022-08-02T01:20:27;94754.81;;;16.69;92.70
6134;BME280;3098;42.678;23.364;2022-08-02T01:23:15;94696.75;;;16.23;92.96
6134;BME280;3098;42.678;23.364;2022-08-02T01:26:29;94738.19;;;16.60;92.57
6134;BME280;3098;42.678;23.364;2022-08-02T01:29:01;94753.09;;;16.77;92.18
6134;BME280;3098;42.678;23.364;2022-08-02T01:31:32;94754.50;;;16.90;90.85
6134;BME280;3098;42.678;23.364;2022-08-02T01:34:09;94755.41;;;16.78;90.86
6134;BME280;3098;42.678;23.364;2022-08-02T01:36:40;94752.94;;;16.89;90.95
6134;BME280;3098;42.678;23.364;2022-08-02T01:39:14;94762.34;;;16.98;90.06
6134;BME280;3098;42.678;23.364;2022-08-02T01:41:44;94758.47;;;16.96;89.52
6134;BME280;3098;42.678;23.364;2022-08-02T01:44:14;94745.56;;;17.01;89.49
6134;BME280;3098;42.678;23.364;2022-08-02T01:46:45;94755.22;;;17.06;88.53
6134;BME280;3098;42.678;23.364;2022-08-02T01:49:16;94715.19;;;16.43;89.72
6134;BME280;3098;42.678;23.364;2022-08-02T01:51:46;94754.91;;;16.73;90.37
6134;BME280;3098;42.678;23.364;2022-08-02T01:54:32;94758.38;;;16.92;89.49
6134;BME280;3098;42.678;23.364;2022-08-02T01:57:02;94751.63;;;16.63;89.49
6134;BME280;3098;42.678;23.364;2022-08-02T01:59:32;94754.56;;;16.74;89.76
6134;BME280;3098;42.678;23.364;2022-08-02T02:02:01;94762.41;;;17.02;88.90
6134;BME280;3098;42.678;23.364;2022-08-02T02:04:30;94762.31;;;16.79;89.07
6134;BME280;3098;42.678;23.364;2022-08-02T02:06:58;94758.25;;;16.85;89.63
6134;BME280;3098;42.678;23.364;2022-08-02T02:09:29;94754.97;;;16.76;89.74
6134;BME280;3098;42.678;23.364;2022-08-02T02:11:58;94734.84;;;16.82;90.00
6134;BME280;3098;42.678;23.364;2022-08-02T02:14:27;94707.88;;;16.56;89.50
6134;BME280;3098;42.678;23.364;2022-08-02T02:16:58;94755.69;;;16.92;89.95
6134;BME280;3098;42.678;23.364;2022-08-02T02:19:27;94754.16;;;16.91;89.99
6134;BME280;3098;42.678;23.364;2022-08-02T02:21:55;94751.63;;;16.63;90.92
6134;BME280;3098;42.678;23.364;2022-08-02T02:24:23;94745.88;;;16.46;92.19
6134;BME280;3098;42.678;23.364;2022-08-02T02:26:50;94707.28;;;16.16;93.02
6134;BME280;3098;42.678;23.364;2022-08-02T02:29:19;94759.44;;;16.37;93.60
6134;BME280;3098;42.678;23.364;2022-08-02T02:31:48;94763.66;;;16.38;93.69
6134;BME280;3098;42.678;23.364;2022-08-02T02:34:24;94762.25;;;16.44;93.56
6134;BME280;3098;42.678;23.364;2022-08-02T02:36:52;94756.28;;;16.51;93.16
6134;BME280;3098;42.678;23.364;2022-08-02T02:39:21;94749.47;;;16.38;92.79
6134;BME280;3098;42.678;23.364;2022-08-02T02:41:52;94763.91;;;16.99;91.51
6134;BME280;3098;42.678;23.364;2022-08-02T02:44:21;94711.72;;;16.74;89.41
6134;BME280;3098;42.678;23.364;2022-08-02T02:46:52;94746.53;;;16.93;88.41
6134;BME280;3098;42.678;23.364;2022-08-02T02:49:22;94740.59;;;16.65;89.82
6134;BME280;3098;42.678;23.364;2022-08-02T02:51:50;94757.47;;;16.85;90.83
6134;BME280;3098;42.678;23.364;2022-08-02T02:54:19;94743.34;;;16.53;91.76
6134;BME280;3098;42.678;23.364;2022-08-02T02:56:48;94751.47;;;16.56;92.29
6134;BME280;3098;42.678;23.364;2022-08-02T02:59:16;94762.41;;;16.67;92.77
6134;BME280;3098;42.678;23.364;2022-08-02T03:01:44;94755.06;;;16.80;92.21
6134;BME280;3098;42.678;23.364;2022-08-02T03:04:12;94748.44;;;16.74;91.79
6134;BME280;3098;42.678;23.364;2022-08-02T03:06:44;94749.13;;;16.71;92.54
6134;BME280;3098;42.678;23.364;2022-08-02T03:09:12;94759.56;;;16.76;93.04
6134;BME280;3098;42.678;23.364;2022-08-02T03:11:40;94750.78;;;16.59;93.13
6134;BME280;3098;42.678;23.364;2022-08-02T03:14:09;94760.72;;;16.59;93.31
6134;BME280;3098;42.678;23.364;2022-08-02T03:16:43;94758.91;;;16.63;93.48
6134;BME280;3098;42.678;23.364;2022-08-02T03:19:11;94763.69;;;17.08;91.87
6134;BME280;3098;42.678;23.364;2022-08-02T03:21:38;94748.59;;;17.00;91.43
6134;BME280;3098;42.678;23.364;2022-08-02T03:24:09;94745.19;;;16.84;91.62
6134;BME280;3098;42.678;23.364;2022-08-02T03:26:36;94760.56;;;16.87;92.70
6134;BME280;3098;42.678;23.364;2022-08-02T03:29:04;94759.84;;;16.90;92.24
6134;BME280;3098;42.678;23.364;2022-08-02T03:31:31;94728.09;;;16.53;92.62
6134;BME280;3098;42.678;23.364;2022-08-02T03:33:59;94757.25;;;16.74;92.94
6134;BME280;3098;42.678;23.364;2022-08-02T03:36:30;94711.03;;;16.96;91.85
6134;BME280;3098;42.678;23.364;2022-08-02T03:38:58;94760.69;;;17.90;88.31
6134;BME280;3098;42.678;23.364;2022-08-02T03:41:28;94755.66;;;18.56;84.72
6134;BME280;3098;42.678;23.364;2022-08-02T03:43:56;94757.00;;;19.25;81.09
6134;BME280;3098;42.678;23.364;2022-08-02T03:46:24;94727.88;;;18.71;79.74
6134;BME280;3098;42.678;23.364;2022-08-02T03:48:52;94760.03;;;18.64;80.49
6134;BME280;3098;42.678;23.364;2022-08-02T03:51:20;94750.19;;;18.26;82.28
6134;BME280;3098;42.678;23.364;2022-08-02T03:53:48;94755.09;;;17.98;83.21
6134;BME280;3098;42.678;23.364;2022-08-02T03:56:15;94763.31;;;17.86;83.97
6134;BME280;3098;42.678;23.364;2022-08-02T03:58:44;94777.44;;;17.83;83.93
6134;BME280;3098;42.678;23.364;2022-08-02T04:01:11;94770.28;;;17.68;84.72
6134;BME280;3098;42.678;23.364;2022-08-02T04:03:39;94785.22;;;17.50;86.41
6134;BME280;3098;42.678;23.364;2022-08-02T04:06:06;94784.31;;;17.42;85.23
6134;BME280;3098;42.678;23.364;2022-08-02T04:08:33;94803.09;;;17.42;86.11
6134;BME280;3098;42.678;23.364;2022-08-02T04:11:01;94680.69;;;16.73;84.55
6134;BME280;3098;42.678;23.364;2022-08-02T04:13:47;94803.03;;;17.58;85.53
6134;BME280;3098;42.678;23.364;2022-08-02T04:16:19;94811.97;;;17.65;85.02
6134;BME280;3098;42.678;23.364;2022-08-02T04:18:50;94805.78;;;17.61;85.34
6134;BME280;3098;42.678;23.364;2022-08-02T04:21:20;94805.75;;;17.80;84.49
6134;BME280;3098;42.678;23.364;2022-08-02T04:23:50;94804.03;;;17.92;83.79
6134;BME280;3098;42.678;23.364;2022-08-02T04:26:18;94794.84;;;17.70;84.35
6134;BME280;3098;42.678;23.364;2022-08-02T04:28:47;94802.28;;;17.80;84.36
6134;BME280;3098;42.678;23.364;2022-08-02T04:31:16;94784.75;;;17.63;83.94
6134;BME280;3098;42.678;23.364;2022-08-02T04:33:44;94792.84;;;17.67;84.43
6134;BME280;3098;42.678;23.364;2022-08-02T04:36:12;94805.38;;;17.59;82.89
6134;BME280;3098;42.678;23.364;2022-08-02T04:38:40;94808.25;;;17.70;83.46
6134;BME280;3098;42.678;23.364;2022-08-02T04:41:12;94798.06;;;17.79;81.96
6134;BME280;3098;42.678;23.364;2022-08-02T04:43:41;94786.00;;;17.69;82.40
6134;BME280;3098;42.678;23.364;2022-08-02T04:46:11;94796.00;;;17.92;82.62
6134;BME280;3098;42.678;23.364;2022-08-02T04:48:41;94808.47;;;18.26;81.42
6134;BME280;3098;42.678;23.364;2022-08-02T04:51:09;94806.66;;;18.30;80.27
6134;BME280;3098;42.678;23.364;2022-08-02T04:53:39;94802.06;;;18.30;80.42
6134;BME280;3098;42.678;23.364;2022-08-02T04:56:08;94811.81;;;18.65;79.53
6134;BME280;3098;42.678;23.364;2022-08-02T04:58:36;94763.63;;;18.49;78.90
6134;BME280;3098;42.678;23.364;2022-08-02T05:01:04;94804.81;;;18.83;78.20
6134;BME280;3098;42.678;23.364;2022-08-02T05:03:33;94794.09;;;20.09;74.71
6134;BME280;3098;42.678;23.364;2022-08-02T05:06:00;94800.00;;;22.20;64.36
6134;BME280;3098;42.678;23.364;2022-08-02T05:08:28;94801.69;;;24.00;56.23
6134;BME280;3098;42.678;23.364;2022-08-02T05:10:55;94812.88;;;25.56;50.95
6134;BME280;3098;42.678;23.364;2022-08-02T05:13:22;94810.75;;;26.62;46.36
6134;BME280;3098;42.678;23.364;2022-08-02T05:15:49;94819.53;;;27.43;43.32
6134;BME280;3098;42.678;23.364;2022-08-02T05:18:17;94822.88;;;25.63;48.08
6134;BME280;3098;42.678;23.364;2022-08-02T05:20:46;94816.03;;;27.42;43.83
6134;BME280;3098;42.678;23.364;2022-08-02T05:23:12;94822.91;;;28.61;40.29
6134;BME280;3098;42.678;23.364;2022-08-02T05:25:40;94764.44;;;28.78;38.45
6134;BME280;3098;42.678;23.364;2022-08-02T05:28:07;94750.63;;;27.81;41.48
6134;BME280;3098;42.678;23.364;2022-08-02T05:30:34;94779.13;;;28.16;39.55
6134;BME280;3098;42.678;23.364;2022-08-02T05:33:01;94822.66;;;28.04;40.01
6134;BME280;3098;42.678;23.364;2022-08-02T05:35:29;94827.84;;;29.92;37.78
6134;BME280;3098;42.678;23.364;2022-08-02T05:37:57;94829.63;;;29.08;37.95
6134;BME280;3098;42.678;23.364;2022-08-02T05:40:24;94802.81;;;29.93;37.07
6134;BME280;3098;42.678;23.364;2022-08-02T05:42:51;94834.31;;;31.02;35.24
6134;BME280;3098;42.678;23.364;2022-08-02T05:45:19;94841.13;;;30.06;36.57
6134;BME280;3098;42.678;23.364;2022-08-02T05:47:46;94836.31;;;30.64;35.46
6134;BME280;3098;42.678;23.364;2022-08-02T05:50:13;94837.28;;;30.57;35.48
6134;BME280;3098;42.678;23.364;2022-08-02T05:52:45;94825.59;;;31.42;34.35
6134;BME280;3098;42.678;23.364;2022-08-02T05:55:15;94842.22;;;30.88;33.81
6134;BME280;3098;42.678;23.364;2022-08-02T05:57:49;94839.00;;;28.75;37.82
6134;BME280;3098;42.678;23.364;2022-08-02T06:00:18;94849.63;;;30.37;35.08
6134;BME280;3098;42.678;23.364;2022-08-02T06:03:08;94849.44;;;30.69;34.09
6134;BME280;3098;42.678;23.364;2022-08-02T06:05:48;94821.84;;;31.01;32.41
6134;BME280;3098;42.678;23.364;2022-08-02T06:08:18;94839.09;;;31.70;32.58
6134;BME280;3098;42.678;23.364;2022-08-02T06:10:51;94856.28;;;33.19;30.57
6134;BME280;3098;42.678;23.364;2022-08-02T06:13:31;94812.84;;;33.63;28.96
6134;BME280;3098;42.678;23.364;2022-08-02T06:16:04;94768.13;;;31.94;30.19
6134;BME280;3098;42.678;23.364;2022-08-02T06:18:33;94847.28;;;33.28;29.67
6134;BME280;3098;42.678;23.364;2022-08-02T06:21:02;94830.19;;;34.33;27.62
6134;BME280;3098;42.678;23.364;2022-08-02T06:23:32;94810.00;;;33.09;28.66
6134;BME280;3098;42.678;23.364;2022-08-02T06:26:02;94856.50;;;31.55;31.31
6134;BME280;3098;42.678;23.364;2022-08-02T06:28:30;94854.59;;;33.13;29.49
6134;BME280;3098;42.678;23.364;2022-08-02T06:30:58;94857.81;;;33.29;29.24
6134;BME280;3098;42.678;23.364;2022-08-02T06:33:24;94811.31;;;33.71;28.10
6134;BME280;3098;42.678;23.364;2022-08-02T06:36:00;94866.00;;;31.63;30.77
6134;BME280;3098;42.678;23.364;2022-08-02T06:38:32;94861.78;;;29.78;33.68
6134;BME280;3098;42.678;23.364;2022-08-02T06:41:04;94798.06;;;30.86;31.87
6134;BME280;3098;42.678;23.364;2022-08-02T06:43:40;94847.03;;;32.33;30.08
6134;BME280;3098;42.678;23.364;2022-08-02T06:46:10;94870.97;;;33.25;29.20
6134;BME280;3098;42.678;23.364;2022-08-02T06:48:38;94870.06;;;33.28;28.41
6134;BME280;3098;42.678;23.364;2022-08-02T06:51:05;94858.88;;;31.65;30.19
6134;BME280;3098;42.678;23.364;2022-08-02T06:53:32;94749.59;;;31.42;29.00
6134;BME280;3098;42.678;23.364;2022-08-02T06:55:59;94831.19;;;31.38;30.13
6134;BME280;3098;42.678;23.364;2022-08-02T06:58:28;94858.75;;;30.59;30.81
6134;BME280;3098;42.678;23.364;2022-08-02T07:00:55;94836.00;;;32.24;29.35
6134;BME280;3098;42.678;23.364;2022-08-02T07:03:22;94809.47;;;31.44;29.92
6134;BME280;3098;42.678;23.364;2022-08-02T07:05:50;94866.69;;;33.33;27.88
6134;BME280;3098;42.678;23.364;2022-08-02T07:08:18;94809.66;;;32.58;28.00
6134;BME280;3098;42.678;23.364;2022-08-02T07:10:46;94843.06;;;31.69;28.68
6134;BME280;3098;42.678;23.364;2022-08-02T07:13:13;94856.75;;;32.87;28.16
6134;BME280;3098;42.678;23.364;2022-08-02T07:15:42;94862.25;;;32.87;28.60
6134;BME280;3098;42.678;23.364;2022-08-02T07:18:09;94843.63;;;33.31;27.66
6134;BME280;3098;42.678;23.364;2022-08-02T07:20:39;94869.88;;;32.83;28.23
6134;BME280;3098;42.678;23.364;2022-08-02T07:23:07;94805.88;;;33.13;27.13
6134;BME280;3098;42.678;23.364;2022-08-02T07:25:34;94832.16;;;33.32;27.02
6134;BME280;3098;42.678;23.364;2022-08-02T07:28:01;94813.97;;;32.37;27.63
6134;BME280;3098;42.678;23.364;2022-08-02T07:30:29;94812.66;;;32.90;28.22
6134;BME280;3098;42.678;23.364;2022-08-02T07:32:59;94854.81;;;33.54;27.76
6134;BME280;3098;42.678;23.364;2022-08-02T07:35:26;94856.19;;;32.92;28.08
6134;BME280;3098;42.678;23.364;2022-08-02T07:37:53;94845.59;;;32.51;27.92
6134;BME280;3098;42.678;23.364;2022-08-02T07:40:22;94852.94;;;33.33;27.21
6134;BME280;3098;42.678;23.364;2022-08-02T07:42:51;94807.91;;;33.31;26.83
6134;BME280;3098;42.678;23.364;2022-08-02T07:45:19;94851.06;;;33.12;27.05
6134;BME280;3098;42.678;23.364;2022-08-02T07:47:47;94856.63;;;33.39;27.45
6134;BME280;3098;42.678;23.364;2022-08-02T07:50:17;94835.75;;;31.54;28.79
6134;BME280;3098;42.678;23.364;2022-08-02T07:52:45;94853.16;;;31.94;29.04
6134;BME280;3098;42.678;23.364;2022-08-02T07:55:14;94849.97;;;31.96;28.36
6134;BME280;3098;42.678;23.364;2022-08-02T07:57:43;94842.28;;;32.95;27.57
6134;BME280;3098;42.678;23.364;2022-08-02T08:00:12;94814.38;;;32.97;27.20
6134;BME280;3098;42.678;23.364;2022-08-02T08:02:40;94852.53;;;32.55;27.38
6134;BME280;3098;42.678;23.364;2022-08-02T08:05:08;94802.88;;;32.80;27.70
6134;BME280;3098;42.678;23.364;2022-08-02T08:07:38;94807.34;;;32.96;27.30
6134;BME280;3098;42.678;23.364;2022-08-02T08:10:07;94835.72;;;33.42;26.86
6134;BME280;3098;42.678;23.364;2022-08-02T08:12:34;94854.88;;;32.01;28.85
6134;BME280;3098;42.678;23.364;2022-08-02T08:15:02;94736.63;;;31.77;28.37
6134;BME280;3098;42.678;23.364;2022-08-02T08:17:30;94858.97;;;31.27;30.37
6134;BME280;3098;42.678;23.364;2022-08-02T08:19:57;94819.78;;;30.42;31.35
6134;BME280;3098;42.678;23.364;2022-08-02T08:22:25;94839.78;;;31.62;29.67
6134;BME280;3098;42.678;23.364;2022-08-02T08:24:54;94723.34;;;32.28;28.06
6134;BME280;3098;42.678;23.364;2022-08-02T08:27:22;94847.78;;;32.86;28.33
6134;BME280;3098;42.678;23.364;2022-08-02T08:29:50;94752.63;;;33.74;26.80
6134;BME280;3098;42.678;23.364;2022-08-02T08:32:17;94850.84;;;33.37;27.54
6134;BME280;3098;42.678;23.364;2022-08-02T08:34:45;94849.44;;;31.88;29.46
6134;BME280;3098;42.678;23.364;2022-08-02T08:37:12;94823.34;;;31.15;30.26
6134;BME280;3098;42.678;23.364;2022-08-02T08:39:39;94792.66;;;32.19;29.70
6134;BME280;3098;42.678;23.364;2022-08-02T08:42:08;94842.34;;;30.59;30.26
6134;BME280;3098;42.678;23.364;2022-08-02T08:44:36;94793.88;;;29.03;32.54
6134;BME280;3098;42.678;23.364;2022-08-02T08:47:04;94846.97;;;31.81;30.82
6134;BME280;3098;42.678;23.364;2022-08-02T08:49:34;94787.25;;;31.63;29.79
6134;BME280;3098;42.678;23.364;2022-08-02T08:52:07;94836.69;;;31.72;29.93
6134;BME280;3098;42.678;23.364;2022-08-02T08:54:37;94833.28;;;31.34;31.44
6134;BME280;3098;42.678;23.364;2022-08-02T08:57:09;94835.50;;;33.09;29.24
6134;BME280;3098;42.678;23.364;2022-08-02T08:59:37;94831.38;;;32.12;29.76
6134;BME280;3098;42.678;23.364;2022-08-02T09:02:04;94840.41;;;32.22;29.64
6134;BME280;3098;42.678;23.364;2022-08-02T09:04:31;94844.03;;;31.28;29.70
6134;BME280;3098;42.678;23.364;2022-08-02T09:06:59;94839.38;;;31.04;31.27
6134;BME280;3098;42.678;23.364;2022-08-02T09:09:26;94816.16;;;31.55;30.54
6134;BME280;3098;42.678;23.364;2022-08-02T09:11:53;94833.69;;;31.58;30.98
6134;BME280;3098;42.678;23.364;2022-08-02T09:14:29;94842.41;;;32.52;28.83
6134;BME280;3098;42.678;23.364;2022-08-02T09:17:06;94836.53;;;33.03;28.34
6134;BME280;3098;42.678;23.364;2022-08-02T09:19:35;94838.50;;;32.31;29.14
6134;BME280;3098;42.678;23.364;2022-08-02T09:22:05;94832.81;;;32.87;28.73
6134;BME280;3098;42.678;23.364;2022-08-02T09:24:41;94785.94;;;31.90;28.18
6134;BME280;3098;42.678;23.364;2022-08-02T09:27:11;94783.53;;;31.23;29.46
6134;BME280;3098;42.678;23.364;2022-08-02T09:29:40;94833.47;;;32.08;28.87
6134;BME280;3098;42.678;23.364;2022-08-02T09:32:11;94814.16;;;33.22;27.29
6134;BME280;3098;42.678;23.364;2022-08-02T09:34:48;94775.38;;;33.84;27.27
6134;BME280;3098;42.678;23.364;2022-08-02T09:37:23;94828.28;;;31.88;29.59
6134;BME280;3098;42.678;23.364;2022-08-02T09:39:51;94779.00;;;30.06;31.07
6134;BME280;3098;42.678;23.364;2022-08-02T09:42:19;94832.16;;;29.77;32.49
6134;BME280;3098;42.678;23.364;2022-08-02T09:44:55;94745.56;;;29.45;32.83
6134;BME280;3098;42.678;23.364;2022-08-02T09:47:24;94767.94;;;30.86;31.48
6134;BME280;3098;42.678;23.364;2022-08-02T09:49:53;94752.69;;;31.66;29.78
6134;BME280;3098;42.678;23.364;2022-08-02T09:52:27;94823.59;;;32.41;29.31
6134;BME280;3098;42.678;23.364;2022-08-02T09:55:02;94774.25;;;31.76;30.06
6134;BME280;3098;42.678;23.364;2022-08-02T09:57:30;94813.78;;;32.62;28.85
6134;BME280;3098;42.678;23.364;2022-08-02T10:00:07;94774.81;;;31.71;30.18
6134;BME280;3098;42.678;23.364;2022-08-02T10:02:35;94815.97;;;32.15;29.34
6134;BME280;3098;42.678;23.364;2022-08-02T10:05:03;94747.16;;;31.57;29.65
6134;BME280;3098;42.678;23.364;2022-08-02T10:07:30;94768.88;;;30.45;31.72
6134;BME280;3098;42.678;23.364;2022-08-02T10:09:57;94816.53;;;31.66;30.21
6134;BME280;3098;42.678;23.364;2022-08-02T10:12:25;94791.91;;;31.54;30.39
6134;BME280;3098;42.678;23.364;2022-08-02T10:14:53;94739.78;;;33.17;27.86
6134;BME280;3098;42.678;23.364;2022-08-02T10:17:22;94812.84;;;32.96;28.67
6134;BME280;3098;42.678;23.364;2022-08-02T10:19:49;94732.47;;;31.51;29.49
6134;BME280;3098;42.678;23.364;2022-08-02T10:22:18;94802.13;;;30.31;31.98
6134;BME280;3098;42.678;23.364;2022-08-02T10:24:47;94759.34;;;31.56;30.84
6134;BME280;3098;42.678;23.364;2022-08-02T10:27:16;94765.06;;;31.49;30.20
6134;BME280;3098;42.678;23.364;2022-08-02T10:29:46;94791.50;;;30.33;31.80
6134;BME280;3098;42.678;23.364;2022-08-02T10:32:16;94769.47;;;30.24;30.96
6134;BME280;3098;42.678;23.364;2022-08-02T10:34:51;94777.50;;;30.81;31.11
6134;BME280;3098;42.678;23.364;2022-08-02T10:37:20;94775.38;;;30.85;31.16
6134;BME280;3098;42.678;23.364;2022-08-02T10:39:55;94756.25;;;30.22;31.58
6134;BME280;3098;42.678;23.364;2022-08-02T10:42:43;94804.53;;;29.14;34.74
6134;BME280;3098;42.678;23.364;2022-08-02T10:45:12;94771.06;;;29.09;34.43
6134;BME280;3098;42.678;23.364;2022-08-02T10:47:56;94798.75;;;29.12;35.03
6134;BME280;3098;42.678;23.364;2022-08-02T10:50:52;94747.03;;;28.72;34.53
6134;BME280;3098;42.678;23.364;2022-08-02T10:53:24;94740.50;;;29.72;33.44
6134;BME280;3098;42.678;23.364;2022-08-02T10:55:52;94758.41;;;31.37;31.79
6134;BME280;3098;42.678;23.364;2022-08-02T10:58:21;94797.19;;;31.01;31.16
6134;BME280;3098;42.678;23.364;2022-08-02T11:00:49;94793.53;;;30.03;32.90
6134;BME280;3098;42.678;23.364;2022-08-02T11:03:35;94787.41;;;29.99;33.51
6134;BME280;3098;42.678;23.364;2022-08-02T11:06:08;94789.25;;;29.90;33.05
6134;BME280;3098;42.678;23.364;2022-08-02T11:08:36;94790.47;;;30.01;33.26
6134;BME280;3098;42.678;23.364;2022-08-02T11:11:16;94768.75;;;31.20;32.18
6134;BME280;3098;42.678;23.364;2022-08-02T11:14:01;94749.97;;;31.31;31.65
6134;BME280;3098;42.678;23.364;2022-08-02T11:17:05;94786.00;;;31.43;31.37
6134;BME280;3098;42.678;23.364;2022-08-02T11:19:34;94755.78;;;32.20;31.25
6134;BME280;3098;42.678;23.364;2022-08-02T11:22:05;94743.38;;;31.42;30.83
6134;BME280;3098;42.678;23.364;2022-08-02T11:24:34;94695.88;;;29.62;31.65
6134;BME280;3098;42.678;23.364;2022-08-02T11:27:03;94746.41;;;29.13;32.77
6134;BME280;3098;42.678;23.364;2022-08-02T11:29:34;94787.06;;;28.79;34.47
6134;BME280;3098;42.678;23.364;2022-08-02T11:32:02;94769.81;;;28.82;35.12
6134;BME280;3098;42.678;23.364;2022-08-02T11:34:31;94716.00;;;29.27;34.64
6134;BME280;3098;42.678;23.364;2022-08-02T11:36:59;94758.34;;;30.43;32.70
6134;BME280;3098;42.678;23.364;2022-08-02T11:39:28;94774.03;;;31.15;31.05
6134;BME280;3098;42.678;23.364;2022-08-02T11:41:57;94785.22;;;31.76;30.73
6134;BME280;3098;42.678;23.364;2022-08-02T11:44:26;94745.84;;;30.30;32.09
6134;BME280;3098;42.678;23.364;2022-08-02T11:46:55;94721.72;;;29.74;32.16
6134;BME280;3098;42.678;23.364;2022-08-02T11:49:23;94719.25;;;30.68;31.35
6134;BME280;3098;42.678;23.364;2022-08-02T11:51:55;94780.41;;;29.98;32.94
6134;BME280;3098;42.678;23.364;2022-08-02T11:54:28;94701.34;;;28.76;35.08
6134;BME280;3098;42.678;23.364;2022-08-02T11:57:11;94759.25;;;29.00;34.42
6134;BME280;3098;42.678;23.364;2022-08-02T11:59:38;94778.34;;;29.00;34.58
6134;BME280;3098;42.678;23.364;2022-08-02T12:02:07;94774.69;;;28.74;35.73
6134;BME280;3098;42.678;23.364;2022-08-02T12:04:34;94661.66;;;27.91;37.24
6134;BME280;3098;42.678;23.364;2022-08-02T12:07:03;94711.91;;;28.42;35.64
6134;BME280;3098;42.678;23.364;2022-08-02T12:09:36;94752.81;;;28.58;35.35
6134;BME280;3098;42.678;23.364;2022-08-02T12:12:03;94687.69;;;27.76;34.74
6134;BME280;3098;42.678;23.364;2022-08-02T12:14:31;94745.09;;;28.05;35.59
6134;BME280;3098;42.678;23.364;2022-08-02T12:17:07;94771.84;;;28.45;36.84
6134;BME280;3098;42.678;23.364;2022-08-02T12:19:52;94784.25;;;28.82;36.63
6134;BME280;3098;42.678;23.364;2022-08-02T12:22:24;94767.81;;;28.34;37.00
6134;BME280;3098;42.678;23.364;2022-08-02T12:24:55;94776.00;;;28.18;37.34
6134;BME280;3098;42.678;23.364;2022-08-02T12:27:30;94744.31;;;28.24;36.55
6134;BME280;3098;42.678;23.364;2022-08-02T12:30:00;94719.22;;;28.61;35.72
6134;BME280;3098;42.678;23.364;2022-08-02T12:32:28;94772.38;;;28.73;35.68
6134;BME280;3098;42.678;23.364;2022-08-02T12:35:05;94770.75;;;28.91;34.93
6134;BME280;3098;42.678;23.364;2022-08-02T12:37:33;94753.16;;;28.44;35.94
6134;BME280;3098;42.678;23.364;2022-08-02T12:40:20;94773.69;;;29.29;35.03
6134;BME280;3098;42.678;23.364;2022-08-02T12:42:49;94746.78;;;28.34;36.19
6134;BME280;3098;42.678;23.364;2022-08-02T12:45:16;94690.94;;;28.23;36.64
6134;BME280;3098;42.678;23.364;2022-08-02T12:47:46;94747.09;;;29.01;36.15
6134;BME280;3098;42.678;23.364;2022-08-02T12:50:16;94733.16;;;28.67;36.07
6134;BME280;3098;42.678;23.364;2022-08-02T12:52:45;94762.38;;;29.15;35.38
6134;BME280;3098;42.678;23.364;2022-08-02T12:55:21;94763.63;;;29.26;34.58
6134;BME280;3098;42.678;23.364;2022-08-02T12:57:54;94752.69;;;29.42;34.46
6134;BME280;3098;42.678;23.364;2022-08-02T13:00:26;94728.78;;;29.59;33.52
6134;BME280;3098;42.678;23.364;2022-08-02T13:02:55;94737.41;;;29.00;34.67
6134;BME280;3098;42.678;23.364;2022-08-02T13:05:23;94756.66;;;29.54;34.59
6134;BME280;3098;42.678;23.364;2022-08-02T13:07:55;94732.84;;;29.67;34.50
6134;BME280;3098;42.678;23.364;2022-08-02T13:10:32;94753.16;;;29.66;34.96
6134;BME280;3098;42.678;23.364;2022-08-02T13:13:09;94753.88;;;28.96;35.43
6134;BME280;3098;42.678;23.364;2022-08-02T13:15:40;94704.66;;;27.83;37.31
6134;BME280;3098;42.678;23.364;2022-08-02T13:18:08;94735.78;;;27.66;37.72
6134;BME280;3098;42.678;23.364;2022-08-02T13:20:39;94717.06;;;27.84;37.59
6134;BME280;3098;42.678;23.364;2022-08-02T13:23:07;94687.06;;;27.68;37.08
6134;BME280;3098;42.678;23.364;2022-08-02T13:25:36;94753.41;;;28.33;36.74